Time;durP1;ratioP1;P1;durP2;ratioP2;P2;SDS_P1;SDS_P2;PMS_P1;PMS_P2;Temp;Humidity;BMP_temperature;BMP_pressure;BME280_temperature;BME280_humidity;BME280_pressure;Samples;Min_cycle;Max_cycle;Signal;HPM_P1;HPM_P2
2022/10/20 00:02:26;;;;;;;0.10;0.10;;;;;;;7.68;100.00;96896.91;4910561;29;20516;-77
2022/10/20 00:05:12;;;;;;;0.10;0.10;;;;;;;7.71;100.00;96907.97;4911203;29;20086;-75
2022/10/20 00:07:57;;;;;;;0.10;0.10;;;;;;;7.66;100.00;96906.97;4912479;29;20355;-76
2022/10/20 00:10:55;;;;;;;0.10;0.10;;;;;;;7.67;100.00;96889.97;4911572;29;20498;-77
2022/10/20 00:13:42;;;;;;;0.25;0.20;;;;;;;7.65;100.00;96894.72;4910560;29;20039;-75
2022/10/20 00:16:31;;;;;;;0.00;0.00;;;;;;;7.66;100.00;96883.81;4911898;29;20047;-75
2022/10/20 00:19:17;;;;;;;0.10;0.10;;;;;;;7.65;100.00;96895.50;4909737;29;20056;-75
2022/10/20 00:22:03;;;;;;;0.10;0.10;;;;;;;7.64;100.00;96885.91;4899123;29;20321;-77
2022/10/20 00:24:50;;;;;;;0.10;0.10;;;;;;;7.68;100.00;96881.75;4912698;29;20055;-76
2022/10/20 00:27:36;;;;;;;0.10;0.10;;;;;;;7.62;100.00;96868.50;4914323;29;20300;-75
2022/10/20 00:30:22;;;;;;;0.10;0.10;;;;;;;7.64;100.00;96861.94;4909643;29;20047;-75
2022/10/20 00:33:08;;;;;;;0.10;0.10;;;;;;;7.61;100.00;96856.22;4911786;29;20062;-75
2022/10/20 00:35:54;;;;;;;0.10;0.10;;;;;;;7.63;100.00;96846.16;4908643;29;20611;-77
2022/10/20 00:38:40;;;;;;;0.10;0.10;;;;;;;7.59;100.00;96845.78;4910993;29;20393;-77
2022/10/20 00:41:27;;;;;;;0.10;0.10;;;;;;;7.63;100.00;96851.50;4913605;29;20511;-75
2022/10/20 00:44:53;;;;;;;0.10;0.10;;;;;;;7.58;100.00;96849.47;4906764;29;20072;-75
2022/10/20 00:47:51;;;;;;;0.17;0.17;;;;;;;7.54;100.00;96843.75;4854838;29;20136;-76
2022/10/20 00:50:40;;;;;;;0.13;0.13;;;;;;;7.49;100.00;96840.16;4913873;29;20412;-75
2022/10/20 00:53:28;;;;;;;0.10;0.10;;;;;;;7.49;100.00;96834.81;4908467;29;20536;-74
2022/10/20 00:56:15;;;;;;;0.10;0.10;;;;;;;7.48;100.00;96828.69;4913078;29;20059;-77
2022/10/20 00:59:02;;;;;;;0.10;0.10;;;;;;;7.46;100.00;96816.59;4909836;29;20166;-76
2022/10/20 01:01:49;;;;;;;0.10;0.10;;;;;;;7.39;100.00;96819.34;4912308;29;20563;-74
2022/10/20 01:04:36;;;;;;;0.10;0.10;;;;;;;7.38;100.00;96807.06;4911375;29;20043;-75
2022/10/20 01:07:22;;;;;;;0.03;0.03;;;;;;;7.35;100.00;96806.69;4910339;29;20130;-75
2022/10/20 01:10:09;;;;;;;0.10;0.10;;;;;;;7.37;100.00;96802.78;4909359;29;20579;-76
2022/10/20 01:13:03;;;;;;;0.10;0.10;;;;;;;7.37;100.00;96800.09;4907351;29;20512;-76
2022/10/20 01:16:02;;;;;;;0.10;0.10;;;;;;;7.34;100.00;96803.22;4911071;29;20047;-77
2022/10/20 01:19:02;;;;;;;0.20;0.20;;;;;;;7.36;100.00;96803.81;4913293;29;20282;-76
2022/10/20 01:22:18;;;;;;;0.10;0.10;;;;;;;7.36;100.00;96793.16;4907776;29;20039;-74
2022/10/20 01:25:44;;;;;;;0.10;0.10;;;;;;;7.39;100.00;96816.69;4906355;29;20487;-76
2022/10/20 01:28:51;;;;;;;0.10;0.10;;;;;;;7.36;100.00;96808.31;4892306;29;20047;-77
2022/10/20 01:31:49;;;;;;;0.10;0.10;;;;;;;7.39;100.00;96806.06;4912599;29;20056;-74
2022/10/20 01:34:45;;;;;;;1.02;0.10;;;;;;;7.40;100.00;96801.53;4911617;29;20054;-75
2022/10/20 01:37:44;;;;;;;0.10;0.10;;;;;;;7.35;100.00;96807.50;4908713;29;20044;-74
2022/10/20 01:40:50;;;;;;;0.10;0.10;;;;;;;7.33;100.00;96800.78;4911648;29;20046;-77
2022/10/20 01:43:40;;;;;;;0.10;0.10;;;;;;;7.29;100.00;96787.06;4908795;29;20054;-75
2022/10/20 01:46:27;;;;;;;0.10;0.10;;;;;;;7.26;100.00;96782.22;4908485;29;21092;-77
2022/10/20 01:49:14;;;;;;;0.10;0.10;;;;;;;7.26;100.00;96775.03;4907703;29;20449;-74
2022/10/20 01:52:01;;;;;;;0.10;0.10;;;;;;;7.26;100.00;96768.91;4909896;28;20063;-77
2022/10/20 01:54:47;;;;;;;0.10;0.10;;;;;;;7.25;100.00;96770.75;4913080;29;20047;-75
2022/10/20 01:58:14;;;;;;;0.10;0.10;;;;;;;7.25;100.00;96761.94;4911184;29;20048;-76
2022/10/20 02:01:14;;;;;;;0.10;0.10;;;;;;;7.22;100.00;96767.69;4898552;29;20098;-76
2022/10/20 02:04:02;;;;;;;0.10;0.10;;;;;;;7.19;100.00;96771.63;4907697;29;20527;-77
2022/10/20 02:06:53;;;;;;;0.10;0.10;;;;;;;7.13;100.00;96772.50;4912253;29;20238;-75
2022/10/20 02:09:47;;;;;;;0.10;0.10;;;;;;;7.06;100.00;96762.94;4909576;29;20332;-77
2022/10/20 02:12:38;;;;;;;0.10;0.10;;;;;;;7.07;100.00;96757.38;4910352;29;20492;-75
2022/10/20 02:15:26;;;;;;;0.10;0.10;;;;;;;7.08;100.00;96761.69;4908417;29;20550;-76
2022/10/20 02:18:24;;;;;;;0.10;0.10;;;;;;;7.06;100.00;96731.81;4905961;29;20519;-75
2022/10/20 02:21:11;;;;;;;0.10;0.10;;;;;;;7.08;100.00;96732.44;4912637;29;20170;-75
2022/10/20 02:24:02;;;;;;;0.10;0.10;;;;;;;7.05;100.00;96742.69;4897606;29;20044;-74
2022/10/20 02:26:51;;;;;;;0.10;0.10;;;;;;;7.05;100.00;96729.38;4900457;29;20400;-72
2022/10/20 02:30:19;;;;;;;0.10;0.10;;;;;;;7.05;100.00;96729.38;4913876;29;20564;-71
2022/10/20 02:33:06;;;;;;;0.10;0.10;;;;;;;7.01;100.00;96717.56;4911970;29;20058;-75
2022/10/20 02:35:57;;;;;;;0.10;0.10;;;;;;;7.03;100.00;96713.63;4911648;29;20047;-73
2022/10/20 02:38:44;;;;;;;0.10;0.10;;;;;;;7.03;100.00;96707.50;4913768;29;20090;-74
2022/10/20 02:41:30;;;;;;;0.10;0.10;;;;;;;7.09;100.00;96715.44;4916200;29;20548;-74
2022/10/20 02:44:16;;;;;;;0.10;0.10;;;;;;;7.06;100.00;96709.72;4909187;29;20148;-75
2022/10/20 02:47:02;;;;;;;0.10;0.10;;;;;;;7.10;100.00;96709.06;4914294;29;20039;-75
2022/10/20 02:49:48;;;;;;;0.10;0.10;;;;;;;7.18;100.00;96706.13;4915356;29;20066;-75
2022/10/20 02:52:35;;;;;;;0.10;0.10;;;;;;;7.19;100.00;96701.59;4912772;29;20048;-72
2022/10/20 02:55:21;;;;;;;0.10;0.10;;;;;;;7.22;100.00;96699.31;4911345;29;20069;-74
2022/10/20 02:58:07;;;;;;;0.10;0.10;;;;;;;7.19;100.00;96715.72;4910019;29;20083;-74
2022/10/20 03:00:53;;;;;;;0.10;0.10;;;;;;;7.16;100.00;96721.50;4915979;29;20047;-74
2022/10/20 03:03:39;;;;;;;0.10;0.10;;;;;;;7.19;100.00;96720.22;4914486;29;20079;-75
2022/10/20 03:06:26;;;;;;;0.10;0.10;;;;;;;7.16;100.00;96716.19;4912829;29;20279;-72
2022/10/20 03:09:12;;;;;;;0.10;0.10;;;;;;;7.16;100.00;96720.66;4908591;29;20142;-73
2022/10/20 03:11:57;;;;;;;0.32;0.20;;;;;;;7.13;100.00;96710.47;4901882;29;20265;-74
2022/10/20 03:14:44;;;;;;;0.10;0.10;;;;;;;7.13;100.00;96700.63;4915331;29;20073;-72
2022/10/20 03:17:30;;;;;;;0.10;0.10;;;;;;;7.15;100.00;96703.06;4913908;29;20051;-72
2022/10/20 03:20:16;;;;;;;0.10;0.10;;;;;;;7.15;100.00;96703.88;4909716;29;20292;-72
2022/10/20 03:23:02;;;;;;;0.20;0.20;;;;;;;7.19;100.00;96702.41;4899758;29;20057;-75
2022/10/20 03:25:47;;;;;;;0.13;0.13;;;;;;;7.19;100.00;96710.41;4915159;29;20047;-73
2022/10/20 03:28:34;;;;;;;0.10;0.10;;;;;;;7.19;100.00;96706.94;4910705;29;20047;-73
2022/10/20 03:31:20;;;;;;;0.10;0.10;;;;;;;7.19;100.00;96690.97;4908321;29;20393;-73
2022/10/20 03:34:05;;;;;;;0.10;0.10;;;;;;;7.11;100.00;96694.72;4911336;29;20055;-75
2022/10/20 03:36:52;;;;;;;0.10;0.10;;;;;;;7.09;100.00;96694.13;4909936;29;20067;-75
2022/10/20 03:39:37;;;;;;;0.10;0.10;;;;;;;7.03;100.00;96691.53;4913254;29;20051;-72
2022/10/20 03:42:23;;;;;;;0.10;0.10;;;;;;;7.06;100.00;96686.56;4909966;29;20039;-73
2022/10/20 03:45:09;;;;;;;0.10;0.10;;;;;;;7.04;100.00;96674.53;4910159;29;20039;-75
2022/10/20 03:47:55;;;;;;;0.10;0.10;;;;;;;7.01;100.00;96680.31;4911346;29;20035;-75
2022/10/20 03:50:42;;;;;;;0.10;0.10;;;;;;;7.03;100.00;96683.56;4913212;29;20114;-75
2022/10/20 03:53:28;;;;;;;0.10;0.10;;;;;;;7.05;100.00;96681.47;4910687;29;20055;-75
2022/10/20 03:56:17;;;;;;;0.10;0.10;;;;;;;7.01;100.00;96690.94;4911810;29;20051;-75
2022/10/20 03:59:02;;;;;;;0.10;0.10;;;;;;;7.01;100.00;96688.28;4912562;29;20047;-74
2022/10/20 04:01:48;;;;;;;0.10;0.10;;;;;;;6.97;100.00;96683.38;4913349;29;20086;-75
2022/10/20 04:04:35;;;;;;;0.10;0.10;;;;;;;6.97;100.00;96677.25;4901973;29;20651;-73
2022/10/20 04:07:21;;;;;;;0.10;0.10;;;;;;;6.96;100.00;96683.63;4912878;29;20491;-74
2022/10/20 04:10:08;;;;;;;0.10;0.10;;;;;;;6.95;100.00;96668.69;4910360;29;20043;-75
2022/10/20 04:12:57;;;;;;;0.10;0.10;;;;;;;6.94;100.00;96662.56;4910940;29;20052;-75
2022/10/20 04:15:43;;;;;;;0.10;0.10;;;;;;;6.93;100.00;96655.63;4915469;29;20377;-72
2022/10/20 04:18:30;;;;;;;0.10;0.10;;;;;;;6.88;100.00;96644.81;4911197;29;20801;-73
2022/10/20 04:21:15;;;;;;;0.20;0.10;;;;;;;6.88;100.00;96654.63;4911852;29;20043;-74
2022/10/20 04:24:02;;;;;;;0.10;0.10;;;;;;;6.85;100.00;96653.25;4913828;29;20489;-75
2022/10/20 04:26:47;;;;;;;0.10;0.10;;;;;;;6.83;100.00;96641.19;4912511;29;20044;-73
2022/10/20 04:29:34;;;;;;;0.10;0.10;;;;;;;6.84;100.00;96650.78;4913523;29;20593;-74
2022/10/20 04:32:19;;;;;;;0.10;0.10;;;;;;;6.83;100.00;96643.84;4911730;29;20114;-73
2022/10/20 04:35:07;;;;;;;0.10;0.10;;;;;;;6.80;100.00;96634.47;4911717;29;20671;-74
2022/10/20 04:37:53;;;;;;;0.10;0.10;;;;;;;6.77;100.00;96650.03;4913389;28;20043;-74
2022/10/20 04:40:39;;;;;;;0.10;0.10;;;;;;;6.77;100.00;96644.72;4913888;28;20051;-73
2022/10/20 04:43:25;;;;;;;0.10;0.10;;;;;;;6.77;100.00;96634.91;4910244;29;20051;-73
2022/10/20 04:46:11;;;;;;;0.10;0.10;;;;;;;6.75;100.00;96631.63;4911621;29;20371;-73
2022/10/20 04:48:56;;;;;;;0.10;0.10;;;;;;;6.77;100.00;96628.75;4912608;29;20118;-73
2022/10/20 04:51:42;;;;;;;0.10;0.10;;;;;;;6.79;100.00;96630.19;4910836;29;20107;-73
2022/10/20 04:54:29;;;;;;;0.10;0.10;;;;;;;6.76;100.00;96605.84;4909723;29;20062;-74
2022/10/20 04:57:14;;;;;;;0.10;0.10;;;;;;;6.82;100.00;96621.75;4908748;29;20250;-74
2022/10/20 05:00:00;;;;;;;0.10;0.10;;;;;;;6.85;100.00;96605.38;4912835;29;20190;-74
2022/10/20 05:02:46;;;;;;;0.10;0.10;;;;;;;6.91;100.00;96579.69;4911583;29;20457;-74
2022/10/20 05:05:32;;;;;;;0.10;0.10;;;;;;;7.01;100.00;96589.84;4912770;29;20301;-75
2022/10/20 05:08:18;;;;;;;0.10;0.10;;;;;;;7.04;100.00;96589.38;4899950;29;20445;-72
2022/10/20 05:11:07;;;;;;;0.10;0.10;;;;;;;7.03;100.00;96582.44;4912198;29;20051;-74
2022/10/20 05:13:53;;;;;;;0.10;0.10;;;;;;;7.03;100.00;96566.47;4910005;29;20569;-74
2022/10/20 05:16:39;;;;;;;0.10;0.10;;;;;;;7.10;100.00;96551.25;4912476;29;20472;-73
2022/10/20 05:19:25;;;;;;;0.10;0.10;;;;;;;7.09;100.00;96577.06;4909561;29;20573;-73
2022/10/20 05:22:11;;;;;;;0.10;0.10;;;;;;;7.07;100.00;96562.31;4910771;29;20046;-76
2022/10/20 05:24:57;;;;;;;0.10;0.10;;;;;;;7.09;100.00;96558.41;4911147;29;20532;-75
2022/10/20 05:27:43;;;;;;;0.10;0.10;;;;;;;7.13;100.00;96559.59;4911921;29;20062;-74
2022/10/20 05:30:28;;;;;;;0.10;0.10;;;;;;;7.14;100.00;96552.41;4910422;29;20087;-75
2022/10/20 05:33:14;;;;;;;0.10;0.10;;;;;;;7.16;100.00;96553.00;4913219;29;20583;-73
2022/10/20 05:36:07;;;;;;;0.10;0.10;;;;;;;7.17;100.00;96551.97;4913266;29;20214;-75
2022/10/20 05:38:54;;;;;;;0.10;0.10;;;;;;;7.14;100.00;96557.72;4912198;29;20036;-74
2022/10/20 05:41:40;;;;;;;0.10;0.10;;;;;;;7.14;100.00;96539.09;4899828;29;20036;-74
2022/10/20 05:44:26;;;;;;;0.10;0.10;;;;;;;7.16;100.00;96529.03;4914504;29;20711;-73
2022/10/20 05:47:12;;;;;;;0.10;0.10;;;;;;;7.18;100.00;96524.31;4909065;29;20733;-74
2022/10/20 05:49:57;;;;;;;0.10;0.10;;;;;;;7.21;100.00;96516.69;4912235;29;20579;-76
2022/10/20 05:52:43;;;;;;;0.10;0.10;;;;;;;7.22;100.00;96530.81;4909329;28;20051;-75
2022/10/20 05:55:29;;;;;;;0.10;0.10;;;;;;;7.22;100.00;96530.81;4914127;29;20055;-74
2022/10/20 05:58:15;;;;;;;0.10;0.10;;;;;;;7.22;100.00;96536.13;4899385;29;20170;-74
2022/10/20 06:01:17;;;;;;;0.10;0.10;;;;;;;7.18;100.00;96542.97;4917628;28;20346;-75
2022/10/20 06:04:03;;;;;;;0.10;0.10;;;;;;;7.18;100.00;96543.75;4916153;29;20459;-76
2022/10/20 06:06:51;;;;;;;0.10;0.10;;;;;;;7.19;100.00;96547.25;4916046;29;20579;-76
2022/10/20 06:09:38;;;;;;;0.10;0.10;;;;;;;7.15;100.00;96552.19;4915361;29;20050;-73
2022/10/20 06:12:23;;;;;;;0.10;0.10;;;;;;;7.11;100.00;96551.03;4913080;29;20577;-75
2022/10/20 06:15:09;;;;;;;0.10;0.10;;;;;;;7.09;100.00;96573.56;4912981;29;20044;-75
2022/10/20 06:17:55;;;;;;;0.10;0.10;;;;;;;7.09;100.00;96560.28;4911905;29;20051;-75
2022/10/20 06:20:41;;;;;;;0.10;0.10;;;;;;;7.07;100.00;96563.13;4917065;29;20591;-73
2022/10/20 06:23:27;;;;;;;0.10;0.10;;;;;;;7.12;100.00;96557.97;4913457;29;21449;-75
2022/10/20 06:26:18;;;;;;;0.10;0.10;;;;;;;7.11;100.00;96563.50;4919394;29;20040;-73
2022/10/20 06:29:08;;;;;;;0.10;0.10;;;;;;;7.16;100.00;96566.28;4913295;29;20052;-76
2022/10/20 06:31:55;;;;;;;0.10;0.10;;;;;;;7.22;100.00;96568.06;4915150;29;20223;-75
2022/10/20 06:34:41;;;;;;;0.10;0.10;;;;;;;7.24;100.00;96550.03;4916792;29;20358;-75
2022/10/20 06:37:29;;;;;;;0.10;0.10;;;;;;;7.23;100.00;96533.25;4913686;29;20043;-75
2022/10/20 06:40:16;;;;;;;0.10;0.10;;;;;;;7.27;100.00;96554.91;4911560;29;20577;-73
2022/10/20 06:43:02;;;;;;;0.10;0.10;;;;;;;7.21;100.00;96558.47;4916481;29;20094;-76
2022/10/20 06:46:02;;;;;;;0.20;0.20;;;;;;;7.23;100.00;96580.34;4915656;29;20048;-74
2022/10/20 06:48:48;;;;;;;0.10;0.10;;;;;;;7.23;100.00;96583.00;4915646;29;20716;-74
2022/10/20 06:51:34;;;;;;;0.10;0.10;;;;;;;7.18;100.00;96601.50;4916971;29;20141;-75
2022/10/20 06:54:21;;;;;;;0.10;0.10;;;;;;;7.16;100.00;96584.94;4916743;29;20047;-74
2022/10/20 06:57:10;;;;;;;0.10;0.10;;;;;;;7.23;100.00;96586.47;4912697;29;20520;-76
2022/10/20 06:59:55;;;;;;;0.10;0.10;;;;;;;7.22;100.00;96581.38;4918091;29;20062;-76
2022/10/20 07:02:41;;;;;;;0.10;0.10;;;;;;;7.25;100.00;96581.75;4904518;29;20095;-74
2022/10/20 07:05:28;;;;;;;0.10;0.10;;;;;;;7.26;100.00;96590.56;4904923;28;20172;-75
2022/10/20 07:08:14;;;;;;;0.20;0.20;;;;;;;7.32;100.00;96589.66;4899390;29;20382;-76
2022/10/20 07:11:12;;;;;;;0.10;0.10;;;;;;;7.30;100.00;96585.59;4915280;28;20055;-75
2022/10/20 07:14:00;;;;;;;0.10;0.10;;;;;;;7.34;100.00;96576.94;4916399;29;20055;-74
2022/10/20 07:16:46;;;;;;;0.10;0.10;;;;;;;7.46;100.00;96585.78;4918771;29;20047;-75
2022/10/20 07:19:32;;;;;;;0.10;0.10;;;;;;;7.50;100.00;96581.63;4916494;29;20090;-75
2022/10/20 07:22:18;;;;;;;0.10;0.10;;;;;;;7.54;100.00;96581.97;4903344;29;20052;-76
2022/10/20 07:25:05;;;;;;;0.20;0.20;;;;;;;7.61;100.00;96595.22;4918600;29;20043;-76
2022/10/20 07:27:53;;;;;;;0.10;0.10;;;;;;;7.58;100.00;96593.81;4915877;29;20036;-77
2022/10/20 07:30:40;;;;;;;0.10;0.10;;;;;;;7.63;100.00;96582.50;4903289;29;20050;-75
2022/10/20 07:33:26;;;;;;;0.10;0.10;;;;;;;7.62;100.00;96578.19;4918585;29;21239;-76
2022/10/20 07:36:19;;;;;;;0.10;0.10;;;;;;;7.62;100.00;96584.31;4920358;29;20040;-76
2022/10/20 07:39:05;;;;;;;0.10;0.10;;;;;;;7.58;100.00;96585.81;4915029;29;20066;-75
2022/10/20 07:41:51;;;;;;;0.10;0.10;;;;;;;7.71;100.00;96563.53;4902148;29;20039;-75
2022/10/20 07:44:37;;;;;;;0.20;0.20;;;;;;;7.79;100.00;96566.69;4916045;29;20740;-74
2022/10/20 07:47:25;;;;;;;0.10;0.10;;;;;;;7.78;100.00;96565.06;4909862;29;20044;-75
2022/10/20 07:50:11;;;;;;;0.10;0.10;;;;;;;7.86;100.00;96569.25;4914474;29;20044;-75
2022/10/20 07:52:57;;;;;;;0.10;0.10;;;;;;;7.83;100.00;96569.69;4904605;29;20056;-78
2022/10/20 07:55:44;;;;;;;0.10;0.10;;;;;;;7.94;100.00;96571.59;4906038;29;20051;-78
2022/10/20 07:58:30;;;;;;;0.10;0.10;;;;;;;7.92;100.00;96570.97;4912005;28;20114;-75
2022/10/20 08:01:16;;;;;;;0.10;0.10;;;;;;;8.19;100.00;96566.06;4910032;29;20036;-75
2022/10/20 08:04:02;;;;;;;0.10;0.10;;;;;;;8.13;100.00;96574.97;4892386;29;20442;-76
2022/10/20 08:06:48;;;;;;;0.10;0.10;;;;;;;8.10;100.00;96556.78;4894360;29;20058;-76
2022/10/20 08:09:34;;;;;;;0.10;0.10;;;;;;;8.10;100.00;96562.09;4912750;29;20207;-76
2022/10/20 08:12:21;;;;;;;0.10;0.10;;;;;;;8.24;100.00;96558.16;4898193;29;20087;-77
2022/10/20 08:15:07;;;;;;;0.10;0.10;;;;;;;8.16;100.00;96563.00;4914566;29;20456;-76
2022/10/20 08:17:53;;;;;;;0.10;0.10;;;;;;;8.13;100.00;96558.16;4915284;28;20048;-76
2022/10/20 08:20:39;;;;;;;0.10;0.10;;;;;;;8.19;100.00;96562.56;4902201;29;20074;-77
2022/10/20 08:23:25;;;;;;;0.10;0.10;;;;;;;8.34;100.00;96541.59;4912198;29;20052;-76
2022/10/20 08:26:12;;;;;;;0.10;0.10;;;;;;;8.46;100.00;96539.75;4913648;29;20284;-76
2022/10/20 08:28:57;;;;;;;0.10;0.10;;;;;;;8.43;100.00;96534.91;4904898;29;20461;-75
2022/10/20 08:31:44;;;;;;;0.10;0.10;;;;;;;8.37;100.00;96531.31;4906490;29;20555;-78
2022/10/20 08:34:30;;;;;;;0.10;0.10;;;;;;;8.53;100.00;96535.13;4914439;29;20062;-75
2022/10/20 08:37:15;;;;;;;0.10;0.10;;;;;;;8.62;100.00;96531.03;4913598;29;20048;-76
2022/10/20 08:40:04;;;;;;;0.10;0.10;;;;;;;8.60;100.00;96551.81;4905370;29;20055;-76
2022/10/20 08:42:50;;;;;;;0.10;0.10;;;;;;;8.93;100.00;96529.00;4906141;29;20519;-76
2022/10/20 08:45:38;;;;;;;0.10;0.10;;;;;;;9.04;100.00;96532.72;4912930;29;20145;-77
2022/10/20 08:48:28;;;;;;;0.10;0.10;;;;;;;9.16;100.00;96512.94;4911583;28;20480;-77
2022/10/20 08:51:21;;;;;;;0.10;0.10;;;;;;;9.10;100.00;96521.06;4914926;28;20218;-78
2022/10/20 08:54:12;;;;;;;0.10;0.10;;;;;;;9.02;100.00;96511.56;4912885;29;20057;-76
2022/10/20 08:57:00;;;;;;;0.10;0.10;;;;;;;9.12;100.00;96501.13;4915168;29;20067;-77
2022/10/20 08:59:50;;;;;;;0.10;0.10;;;;;;;9.09;100.00;96501.56;4909100;29;20201;-76
2022/10/20 09:02:36;;;;;;;0.10;0.10;;;;;;;9.14;100.00;96511.56;4912949;29;20407;-76
2022/10/20 09:05:27;;;;;;;0.10;0.10;;;;;;;9.15;100.00;96497.97;4913858;29;20047;-76
2022/10/20 09:08:14;;;;;;;0.10;0.10;;;;;;;9.22;100.00;96500.50;4911637;29;20032;-76
2022/10/20 09:11:01;;;;;;;0.10;0.10;;;;;;;9.23;100.00;96498.63;4911788;29;20281;-77
2022/10/20 09:13:47;;;;;;;0.10;0.10;;;;;;;9.34;100.00;96489.75;4910319;29;20046;-76
2022/10/20 09:16:38;;;;;;;0.10;0.10;;;;;;;9.38;100.00;96477.56;4916051;29;20055;-76
2022/10/20 09:19:24;;;;;;;0.10;0.10;;;;;;;9.17;100.00;96484.38;4909556;29;20122;-74
2022/10/20 09:22:12;;;;;;;0.10;0.10;;;;;;;9.23;100.00;96501.31;4910392;29;20044;-76
2022/10/20 09:24:58;;;;;;;0.10;0.10;;;;;;;9.34;100.00;96503.94;4902984;29;20147;-73
2022/10/20 09:27:44;;;;;;;0.10;0.10;;;;;;;9.38;100.00;96493.56;4912824;29;20395;-75
2022/10/20 09:30:34;;;;;;;0.10;0.10;;;;;;;9.57;100.00;96500.34;4915287;29;20563;-74
2022/10/20 09:33:20;;;;;;;0.20;0.20;;;;;;;9.72;100.00;96516.59;4911842;29;20251;-74
2022/10/20 09:36:19;;;;;;;0.15;0.15;;;;;;;10.06;100.00;96522.00;4914278;29;20374;-76
2022/10/20 09:39:05;;;;;;;0.10;0.10;;;;;;;10.28;100.00;96522.09;4914005;29;20040;-73
2022/10/20 09:42:01;;;;;;;0.20;0.10;;;;;;;10.20;100.00;96509.09;4914208;29;20040;-76
2022/10/20 09:44:58;;;;;;;0.10;0.10;;;;;;;9.88;100.00;96528.38;4915387;29;20076;-75
2022/10/20 09:47:48;;;;;;;0.10;0.10;;;;;;;9.64;100.00;96533.03;4906728;29;20472;-75
2022/10/20 09:50:38;;;;;;;0.10;0.10;;;;;;;9.62;100.00;96520.97;4915399;29;20047;-75
2022/10/20 09:53:30;;;;;;;0.10;0.10;;;;;;;9.67;100.00;96505.84;4910202;29;20362;-76
2022/10/20 09:56:32;;;;;;;0.10;0.10;;;;;;;9.72;100.00;96515.78;4911000;29;20164;-74
2022/10/20 09:59:18;;;;;;;0.20;0.20;;;;;;;9.76;100.00;96503.59;4909703;29;20471;-74
2022/10/20 10:02:27;;;;;;;0.10;0.10;;;;;;;10.04;100.00;96500.84;4915806;29;20290;-74
2022/10/20 10:05:19;;;;;;;0.10;0.10;;;;;;;10.10;100.00;96506.25;4912210;29;20044;-76
2022/10/20 10:08:12;;;;;;;;;;;;;;;10.26;100.00;96516.97;4914348;29;20027;-75
2022/10/20 10:11:01;;;;;;;0.10;0.10;;;;;;;10.13;100.00;96519.16;4912084;29;20408;-76
2022/10/20 10:13:49;;;;;;;0.10;0.10;;;;;;;9.82;100.00;96518.66;4895388;29;20088;-75
2022/10/20 10:16:41;;;;;;;0.10;0.10;;;;;;;9.57;100.00;96519.03;4915388;29;20229;-77
2022/10/20 10:19:32;;;;;;;0.10;0.10;;;;;;;9.61;100.00;96528.19;4911045;29;20083;-76
2022/10/20 10:22:18;;;;;;;0.20;0.20;;;;;;;9.65;100.00;96524.00;4914044;29;20712;-74
2022/10/20 10:25:06;;;;;;;0.10;0.10;;;;;;;9.66;100.00;96533.63;4914890;29;20036;-77
2022/10/20 10:28:03;;;;;;;0.10;0.10;;;;;;;9.67;100.00;96531.75;4897731;29;20052;-74
2022/10/20 10:31:04;;;;;;;0.10;0.10;;;;;;;9.64;100.00;96532.22;4909113;29;20408;-75
2022/10/20 10:34:10;;;;;;;0.15;0.15;;;;;;;9.69;100.00;96516.28;4912168;29;20048;-75
2022/10/20 10:36:56;;;;;;;0.20;0.20;;;;;;;9.59;100.00;96514.25;4907234;29;20071;-77
2022/10/20 10:39:42;;;;;;;0.10;0.10;;;;;;;9.47;100.00;96521.50;4908090;28;20039;-76
2022/10/20 10:42:54;;;;;;;0.10;0.10;;;;;;;9.60;100.00;96525.75;4909523;29;20142;-75
2022/10/20 10:45:50;;;;;;;0.10;0.10;;;;;;;9.81;100.00;96522.38;4919283;29;20492;-77
2022/10/20 10:48:51;;;;;;;0.10;0.10;;;;;;;10.02;100.00;96523.50;4565951;29;10000235;-75
2022/10/20 10:52:04;;;;;;;0.10;0.10;;;;;;;10.25;100.00;96530.59;4577787;28;10000933;-74
2022/10/20 10:55:02;;;;;;;0.10;0.10;;;;;;;10.12;100.00;96534.41;4913234;29;20808;-77
2022/10/20 10:57:56;;;;;;;0.10;0.10;;;;;;;10.08;100.00;96527.91;4917148;28;20090;-75
2022/10/20 11:00:58;;;;;;;0.10;0.10;;;;;;;9.88;100.00;96514.19;4915501;29;20047;-76
2022/10/20 11:03:59;;;;;;;0.10;0.10;;;;;;;9.88;100.00;96500.81;4915171;29;20460;-76
2022/10/20 11:07:21;;;;;;;0.10;0.10;;;;;;;9.74;100.00;96495.81;4913830;29;20040;-76
2022/10/20 11:10:46;;;;;;;0.10;0.10;;;;;;;9.79;100.00;96489.72;4915249;28;20618;-76
2022/10/20 11:13:48;;;;;;;0.10;0.10;;;;;;;9.71;100.00;96488.28;4915641;29;20075;-74
2022/10/20 11:17:02;;;;;;;0.10;0.10;;;;;;;9.91;100.00;96462.94;4907604;29;20412;-74
2022/10/20 11:20:18;;;;;;;0.10;0.10;;;;;;;9.95;100.00;96467.53;4912680;29;20090;-77
2022/10/20 11:23:28;;;;;;;0.10;0.10;;;;;;;9.70;100.00;96473.28;4910598;29;20243;-76
2022/10/20 11:26:33;;;;;;;0.10;0.10;;;;;;;9.71;100.00;96490.13;4913482;29;20122;-75
2022/10/20 11:29:39;;;;;;;0.10;0.10;;;;;;;9.61;100.00;96469.41;4906976;29;20044;-74
2022/10/20 11:32:47;;;;;;;0.10;0.10;;;;;;;9.74;100.00;96485.13;4911646;29;20243;-77
2022/10/20 11:35:54;;;;;;;0.20;0.17;;;;;;;9.85;100.00;96493.31;4884981;29;20107;-75
2022/10/20 11:38:49;;;;;;;0.10;0.10;;;;;;;9.82;100.00;96485.78;4905418;29;20044;-74
2022/10/20 11:41:50;;;;;;;0.10;0.10;;;;;;;9.89;100.00;96489.09;4912819;29;20136;-75
2022/10/20 11:44:39;;;;;;;;;;;;;;;9.98;100.00;96507.16;4907515;29;20592;-75
2022/10/20 11:47:33;;;;;;;0.10;0.10;;;;;;;10.03;100.00;96514.44;4903369;29;20364;-74
2022/10/20 11:50:19;;;;;;;0.10;0.10;;;;;;;9.83;100.00;96530.16;4912744;29;20547;-75
2022/10/20 11:53:21;;;;;;;0.10;0.10;;;;;;;9.74;100.00;96530.56;4912283;29;20139;-76
2022/10/20 11:56:25;;;;;;;;;;;;;;;9.76;100.00;96520.44;4911027;29;20043;-77
2022/10/20 12:00:03;;;;;;;0.10;0.10;;;;;;;9.64;100.00;96545.59;4913333;29;19922;-77
2022/10/20 12:03:07;;;;;;;0.10;0.10;;;;;;;9.54;100.00;96540.88;4880911;29;20411;-76
2022/10/20 12:06:35;;;;;;;0.13;0.10;;;;;;;9.63;100.00;96526.06;4915955;29;20242;-74
2022/10/20 12:09:52;;;;;;;0.10;0.10;;;;;;;9.69;100.00;96517.09;4886619;29;20043;-77
2022/10/20 12:12:53;;;;;;;0.10;0.10;;;;;;;9.67;100.00;96518.41;4912092;29;20051;-76
2022/10/20 12:15:48;;;;;;;0.20;0.20;;;;;;;9.69;100.00;96519.78;4917407;29;20052;-75
2022/10/20 12:18:35;;;;;;;0.10;0.10;;;;;;;9.67;100.00;96521.06;4912752;29;20069;-75
2022/10/20 12:21:53;;;;;;;0.10;0.10;;;;;;;9.62;100.00;96524.44;4914812;29;20046;-77
2022/10/20 12:24:40;;;;;;;0.10;0.10;;;;;;;9.63;100.00;96525.25;4911450;29;20062;-77
2022/10/20 12:27:26;;;;;;;0.20;0.20;;;;;;;9.65;100.00;96504.44;4909043;29;21602;-76
2022/10/20 12:30:38;;;;;;;0.20;0.10;;;;;;;9.50;100.00;96507.69;4912360;29;20056;-77
2022/10/20 12:33:58;;;;;;;0.13;0.13;;;;;;;9.44;100.00;96511.31;4903371;29;20047;-76
2022/10/20 12:36:44;;;;;;;0.10;0.10;;;;;;;9.39;100.00;96508.53;4917409;29;20452;-77
2022/10/20 12:39:30;;;;;;;0.10;0.10;;;;;;;9.31;100.00;96490.25;4913125;29;20166;-75
2022/10/20 12:42:22;;;;;;;0.15;0.15;;;;;;;9.37;100.00;96500.78;4911951;29;20550;-75
2022/10/20 12:45:14;;;;;;;0.10;0.10;;;;;;;9.45;100.00;96520.94;4914983;29;20047;-77
2022/10/20 12:48:02;;;;;;;0.20;0.10;;;;;;;9.44;100.00;96497.97;4914354;29;20040;-75
2022/10/20 12:50:50;;;;;;;0.10;0.10;;;;;;;9.45;100.00;96502.25;4908911;29;20040;-77
2022/10/20 12:53:37;;;;;;;0.10;0.10;;;;;;;9.48;100.00;96481.19;4914426;29;20055;-76
2022/10/20 12:56:26;;;;;;;0.20;0.10;;;;;;;9.45;100.00;96470.19;4915884;29;20614;-76
2022/10/20 12:59:27;;;;;;;0.10;0.10;;;;;;;9.43;100.00;96466.97;4911110;29;20562;-76
2022/10/20 13:02:23;;;;;;;0.10;0.10;;;;;;;9.50;100.00;96462.28;4909522;29;20050;-75
2022/10/20 13:05:23;;;;;;;0.10;0.10;;;;;;;9.49;100.00;96450.78;4911966;29;20048;-76
2022/10/20 13:08:30;;;;;;;0.10;0.10;;;;;;;9.44;100.00;96449.88;4915193;28;20326;-77
2022/10/20 13:11:34;;;;;;;0.10;0.10;;;;;;;9.51;100.00;96447.88;4911915;29;20040;-75
2022/10/20 13:14:40;;;;;;;0.10;0.10;;;;;;;9.58;100.00;96427.16;4913973;29;20323;-76
2022/10/20 13:17:36;;;;;;;0.10;0.10;;;;;;;9.72;100.00;96427.63;4911874;29;21073;-75
2022/10/20 13:20:38;;;;;;;0.10;0.10;;;;;;;9.73;100.00;96419.38;4910956;29;20451;-75
2022/10/20 13:23:28;;;;;;;0.10;0.10;;;;;;;9.55;100.00;96422.28;4910896;29;20044;-75
2022/10/20 13:26:25;;;;;;;0.10;0.10;;;;;;;9.53;100.00;96428.94;4893271;29;20043;-76
2022/10/20 13:29:33;;;;;;;0.10;0.10;;;;;;;9.44;100.00;96432.00;4911225;29;20686;-78